Impacts METAR Board
IDs:

KBFM - Mobile/Downtown Arpt, AL, US

Updated at: 0600 UTC 24 Jan 2019
Potential Impact None Slight Moderate High
Time 23/18Z 23/19Z 23/20Z 23/21Z 23/22Z 23/23Z 24/00Z 24/01Z 24/02Z 24/03Z 24/04Z 24/05Z 24/06Z
Temp64 67 66 67 66 57 57 57 57 57 57 50 48
Dewpt63 66 65 66 65 56 55 55 55 56 56 49 46
Altim29.87 29.84 29.80 29.79 29.78 29.86 29.82 29.86 29.85 29.88 29.86 29.91 29.89
VIS5 3 3 3 3 6 10 10 10 10 10 10 10
CIG12 8 4 4 8 10 110 45 90 100 24 16 8
CoverOVCOVCOVCOVCOVCOVCBKNBKNOVCOVCOVCOVCBKN
FltCatMVFRIFRLIFRLIFRIFRMVFRVFRVFRVFRVFRMVFRMVFRIFR
WX-RA BRRA BRBRRA BRRA BRTSRA BR-RA-----RA-RA----
WDir150170170170180320340340802400290300
WSpd16 12 7 10 7 14 9 3 3 4 0 11 7
WGst26 22 -- 17 -- -- -- -- -- -- -- 20 17
Raw hourly METARs
KBFM 231753Z 15016G26KT 5SM -RA BR BKN012 OVC016 18/17 A2987 RMK AO2 PK WND 13029/1725 SLP115 P0005 60005 T01780172 10194 20178 58031
KBFM 231853Z 17012G22KT 3SM RA BR FEW004 BKN008 OVC011 19/19 A2984 RMK AO2 SLP105 P0002 T01940189
KBFM 231953Z 17007KT 3SM BR BKN004 OVC011 19/18 A2980 RMK AO2 RAE08B24E45 SLP091 P0004 T01890183
KBFM 232053Z 17010G17KT 3SM RA BR BKN004 BKN014 OVC020 19/19 A2979 RMK AO2 RAB1955E05B38 SLP088 P0005 60011 T01940189 56027
KBFM 232153Z 18007KT 150V210 3SM RA BR BKN008 BKN016 OVC033 19/18 A2978 RMK AO2 LTG DSNT SW SLP082 P0019 T01890183
KBFM 232253Z 32014KT 6SM TSRA BR BKN010 BKN033 OVC075 14/13 A2986 RMK AO2 PK WND 32038/2200 WSHFT 2159 LTG DSNT NE-SE TSB52 SLP111 P0066 T01390133
KBFM 232353Z 34009KT 10SM -RA FEW010 BKN110 14/13 A2982 RMK AO2 LTG DSNT NE-SE TSE07B14E29 SLP096 P0013 60109 T01390128 10194 20139 50014
KBFM 240053Z 34003KT 10SM BKN045 14/13 A2986 RMK AO2 RAE04 PRESRR SLP112 P0000 T01390128
KBFM 240153Z 08003KT 10SM FEW055 OVC090 14/13 A2985 RMK AO2 RAB00E45 SLP107 P0003 T01390128
KBFM 240253Z 24004KT 10SM -RA FEW007 OVC100 14/13 A2988 RMK AO2 RAB07E18B52 SLP118 P0000 60003 T01390133 51022
KBFM 240353Z AUTO 00000KT 10SM -RA SCT007 BKN024 OVC029 14/13 A2986 RMK AO2 RAE01B17 PRESFR SLP111 P0002 T01390133
KBFM 240453Z AUTO 29011G20KT 10SM FEW008 OVC016 10/09 A2991 RMK AO2 RAE51 SLP129 P0001 T01000094
KBFM 240553Z AUTO 30007G17KT 10SM BKN008 BKN120 09/08 A2989 RMK AO2 PRESRR SLP122 P0001 60007 T00890078 10139 20089 401940089 51012



Page loaded:  06:29 UTC  |   10:29 PM Pacific  |   11:29 PM Mountain  |   12:29 AM Central  |   01:29 AM Eastern

 

ADVISORIES

FORECASTS

FORECASTS

OBSERVATIONS

USER TOOLS

ABOUT US